createdAt,value
2022-11-21T00:02:16.850Z,1.07
2022-11-21T00:07:08.682Z,1.00
2022-11-21T00:12:00.543Z,1.00
2022-11-21T00:16:57.200Z,0.90
2022-11-21T00:21:49.283Z,1.10
2022-11-21T00:26:40.996Z,1.00
2022-11-21T00:31:32.727Z,0.97
2022-11-21T00:36:24.563Z,0.60
2022-11-21T00:41:16.377Z,0.97
2022-11-21T00:46:08.133Z,0.90
2022-11-21T00:51:03.186Z,0.63
2022-11-21T00:55:55.380Z,0.80
2022-11-21T01:00:47.159Z,0.77
2022-11-21T01:05:39.008Z,0.63
2022-11-21T01:10:30.748Z,0.90
2022-11-21T01:15:22.538Z,0.90
2022-11-21T01:20:14.513Z,0.90
2022-11-21T01:25:07.188Z,1.10
2022-11-21T01:35:05.619Z,0.70
2022-11-21T01:39:57.360Z,0.63
2022-11-21T01:44:54.318Z,0.47
2022-11-21T01:49:47.257Z,0.70
2022-11-21T01:54:41.916Z,0.50
2022-11-21T01:59:42.665Z,0.70
2022-11-21T02:04:36.840Z,0.40
2022-11-21T02:09:33.111Z,0.63
2022-11-21T02:14:26.077Z,0.50
2022-11-21T02:19:35.519Z,0.40
2022-11-21T02:24:46.820Z,0.67
2022-11-21T02:29:40.375Z,0.57
2022-11-21T02:34:33.362Z,0.60
2022-11-21T02:39:36.880Z,0.47
2022-11-21T02:45:01.412Z,0.60
2022-11-21T02:50:12.705Z,0.60
2022-11-21T02:55:05.804Z,0.70
2022-11-21T02:59:57.620Z,0.47
2022-11-21T03:04:49.356Z,0.60
2022-11-21T03:09:41.088Z,0.50
2022-11-21T03:14:34.390Z,0.53
2022-11-21T03:19:26.145Z,0.60
2022-11-21T03:24:17.861Z,0.80
2022-11-21T03:29:09.598Z,0.50
2022-11-21T03:34:01.312Z,0.80
2022-11-21T03:38:56.993Z,0.97
2022-11-21T03:43:48.703Z,0.80
2022-11-21T03:48:40.413Z,0.40
2022-11-21T03:53:32.111Z,0.77
2022-11-21T03:58:23.864Z,0.67
2022-11-21T04:03:15.575Z,0.70
2022-11-21T04:08:07.315Z,0.47
2022-11-21T04:12:59.044Z,0.63
2022-11-21T04:17:52.879Z,0.37
2022-11-21T04:22:44.643Z,0.47
2022-11-21T04:27:36.413Z,0.70
2022-11-21T04:32:28.210Z,0.60
2022-11-21T04:37:19.954Z,0.40
2022-11-21T04:42:11.661Z,0.60
2022-11-21T04:47:05.544Z,0.97
2022-11-21T04:51:57.581Z,0.70
2022-11-21T04:56:49.301Z,0.67
2022-11-21T05:12:13.876Z,0.67
2022-11-21T05:32:55.319Z,1.10
2022-11-21T05:43:12.202Z,0.50
2022-11-21T05:48:15.297Z,0.40
2022-11-21T08:01:10.285Z,0.50
2022-11-21T12:45:31.578Z,1.40
2022-11-21T14:08:26.977Z,0.67
2022-11-21T14:13:40.064Z,0.80
2022-11-21T14:23:45.488Z,0.60
2022-11-21T14:33:50.129Z,0.80
2022-11-21T15:20:55.219Z,1.13
2022-11-21T15:25:49.518Z,1.30
2022-11-21T15:46:52.890Z,0.90
2022-11-21T15:52:10.280Z,1.17
2022-11-21T15:57:03.485Z,1.10
2022-11-21T16:01:56.434Z,1.10
2022-11-21T16:06:49.409Z,1.10
2022-11-21T16:27:02.939Z,1.30
2022-11-21T16:32:19.002Z,1.47
2022-11-21T16:37:11.267Z,1.50
2022-11-21T16:42:03.537Z,0.90
2022-11-21T16:57:14.562Z,1.43
2022-11-21T17:07:12.523Z,1.77
2022-11-21T17:12:13.269Z,1.63
2022-11-21T17:22:11.208Z,1.73
2022-11-21T17:27:03.354Z,1.80
2022-11-21T17:31:56.931Z,1.70
2022-11-21T17:36:57.848Z,1.17
2022-11-21T17:41:50.134Z,1.63
2022-11-21T17:46:51.017Z,2.10
2022-11-21T17:51:47.052Z,1.20
2022-11-21T17:56:45.372Z,1.30
2022-11-21T18:01:40.357Z,1.53
2022-11-21T18:11:46.233Z,1.77
2022-11-21T18:16:44.835Z,2.40
2022-11-21T18:21:41.611Z,2.37
2022-11-21T18:26:38.121Z,2.13
2022-11-21T18:36:37.139Z,2.27
2022-11-21T18:41:34.383Z,1.83
2022-11-21T18:46:30.241Z,1.70
2022-11-21T18:51:34.831Z,1.87
2022-11-21T18:56:31.113Z,1.80
2022-11-21T19:01:27.520Z,1.50
2022-11-21T19:06:22.264Z,1.80
2022-11-21T19:11:16.220Z,2.17
2022-11-21T19:16:14.147Z,2.03
2022-11-21T19:21:33.025Z,2.20
2022-11-21T19:31:31.462Z,1.90
2022-11-21T19:36:25.797Z,1.73
2022-11-21T19:56:50.436Z,2.97
2022-11-21T20:01:42.913Z,3.00
2022-11-21T20:11:57.104Z,3.20
2022-11-21T20:16:51.179Z,3.17
2022-11-21T20:21:48.793Z,2.80
2022-11-21T20:26:41.992Z,3.80
2022-11-21T20:31:43.717Z,2.90
2022-11-21T20:36:40.337Z,3.07
2022-11-21T20:41:38.335Z,3.00
2022-11-21T20:56:49.806Z,2.80
2022-11-21T21:01:51.314Z,2.97
2022-11-21T21:11:53.029Z,2.83
2022-11-21T21:37:09.294Z,2.70
2022-11-21T21:42:01.485Z,2.90
2022-11-21T21:51:59.702Z,2.17
2022-11-21T21:56:52.306Z,2.53
2022-11-21T22:01:48.218Z,2.10
2022-11-21T22:06:40.943Z,2.50
2022-11-21T22:11:41.479Z,2.93
2022-11-21T22:21:40.101Z,2.47
2022-11-21T22:26:32.799Z,2.80
2022-11-21T22:31:25.455Z,3.00
2022-11-21T22:36:19.753Z,2.63
2022-11-21T22:41:21.289Z,2.97
2022-11-21T22:46:19.879Z,2.67
2022-11-21T22:51:19.271Z,2.50
2022-11-21T22:56:11.553Z,2.40
2022-11-21T23:01:07.717Z,2.03
2022-11-21T23:06:06.068Z,2.60
2022-11-21T23:11:06.979Z,2.63
2022-11-21T23:15:59.505Z,2.63
2022-11-21T23:20:52.434Z,2.77
2022-11-21T23:25:44.962Z,2.97
2022-11-21T23:30:37.890Z,3.60
2022-11-21T23:35:33.283Z,3.43
2022-11-21T23:40:25.815Z,3.80
2022-11-21T23:45:17.715Z,3.57
2022-11-21T23:50:10.935Z,3.60
2022-11-21T23:55:03.376Z,3.50
2022-11-21T23:59:55.610Z,3.70
